createdAt,value
2018-09-25T00:00:01.418Z,1
2018-09-25T00:05:03.795Z,1
2018-09-25T00:10:06.093Z,1
2018-09-25T00:15:08.800Z,0
2018-09-25T00:20:10.978Z,1
2018-09-25T00:25:13.374Z,1
2018-09-25T00:30:15.773Z,1
2018-09-25T00:35:18.263Z,1
2018-09-25T00:45:23.116Z,1
2018-09-25T00:50:25.534Z,1
2018-09-25T01:10:35.314Z,1
2018-09-25T07:38:43.453Z,3
2018-09-25T07:43:45.984Z,3
2018-09-25T07:48:48.338Z,2
2018-09-25T07:53:50.787Z,3
2018-09-25T07:58:53.341Z,3
2018-09-25T08:03:55.708Z,2
2018-09-25T08:08:59.052Z,2
2018-09-25T08:14:00.659Z,3
2018-09-25T08:19:03.027Z,2
2018-09-25T08:24:05.592Z,2
2018-09-25T08:29:07.956Z,2
2018-09-25T08:34:10.380Z,2
2018-09-25T08:39:12.901Z,2
2018-09-25T08:49:17.706Z,1
2018-09-25T08:54:20.243Z,1
2018-09-25T08:59:22.642Z,2
2018-09-25T09:04:24.997Z,1
2018-09-25T09:09:27.459Z,1
2018-09-25T09:14:31.831Z,2
2018-09-25T09:19:32.436Z,1
2018-09-25T09:24:34.815Z,1
2018-09-25T09:29:37.285Z,2
2018-09-25T09:34:39.662Z,1
2018-09-25T09:39:42.164Z,1
2018-09-25T09:49:46.993Z,1
2018-09-25T09:54:49.509Z,1
2018-09-25T09:59:51.909Z,1
2018-09-25T10:04:54.434Z,1
2018-09-25T10:09:56.846Z,1
2018-09-25T10:14:59.217Z,1
2018-09-25T10:20:01.834Z,1
2018-09-25T10:25:04.106Z,1
2018-09-25T10:30:06.747Z,1
2018-09-25T10:35:08.938Z,0
2018-09-25T10:40:11.379Z,1
2018-09-25T10:45:13.841Z,4
2018-09-25T10:50:16.281Z,1
2018-09-25T10:55:18.747Z,8
2018-09-25T11:00:21.642Z,9
2018-09-25T11:05:23.611Z,1
2018-09-25T11:10:26.041Z,1
2018-09-25T11:15:28.573Z,1
2018-09-25T11:20:30.914Z,1
2018-09-25T11:25:33.380Z,1
2018-09-25T11:30:36.159Z,1
2018-09-25T11:35:38.214Z,1
2018-09-25T11:40:40.799Z,1
2018-09-25T11:45:43.129Z,1
2018-09-25T11:50:45.530Z,1
2018-09-25T11:55:47.990Z,1
2018-09-25T12:00:50.444Z,1
2018-09-25T12:05:52.858Z,0
2018-09-25T12:10:55.317Z,1
2018-09-25T12:15:58.044Z,1
2018-09-25T12:21:00.180Z,1
2018-09-25T12:26:02.621Z,1
2018-09-25T12:31:05.092Z,1
2018-09-25T12:36:07.489Z,1
2018-09-25T12:41:09.996Z,1
2018-09-25T12:46:12.656Z,1
2018-09-25T12:51:14.950Z,1
2018-09-25T12:56:17.349Z,1
2018-09-25T13:01:19.688Z,1
2018-09-25T13:06:22.200Z,1
2018-09-25T13:11:24.681Z,1
2018-09-25T13:16:27.043Z,1
2018-09-25T13:21:29.554Z,1
2018-09-25T13:26:32.099Z,1
2018-09-25T13:31:34.408Z,1
2018-09-25T13:36:36.892Z,1
2018-09-25T13:41:39.480Z,1
2018-09-25T13:46:41.891Z,1
2018-09-25T13:51:44.131Z,1
2018-09-25T13:56:46.571Z,1
2018-09-25T14:01:49.274Z,1
2018-09-25T14:06:51.557Z,1
2018-09-25T14:11:53.906Z,1
2018-09-25T14:16:56.316Z,1
2018-09-25T14:21:58.888Z,1
2018-09-25T14:27:01.238Z,1
2018-09-25T14:32:03.861Z,1
2018-09-25T14:37:06.215Z,1
2018-09-25T14:42:08.548Z,1
2018-09-25T14:47:10.965Z,1
2018-09-25T14:52:13.460Z,1
2018-09-25T14:57:15.846Z,1
2018-09-25T15:02:18.370Z,1
2018-09-25T15:07:20.849Z,1
2018-09-25T15:12:23.238Z,1
2018-09-25T15:17:25.900Z,1
2018-09-25T15:22:28.072Z,1
2018-09-25T15:27:30.693Z,1
2018-09-25T15:32:32.948Z,1
2018-09-25T15:37:35.418Z,1
2018-09-25T15:42:38.089Z,1
2018-09-25T15:47:40.348Z,1
2018-09-25T15:52:42.883Z,1
2018-09-25T15:57:45.154Z,1
2018-09-25T16:02:47.817Z,1
2018-09-25T16:07:50.148Z,1
2018-09-25T16:12:52.548Z,1
2018-09-25T16:17:55.152Z,0
2018-09-25T16:22:57.337Z,1
2018-09-25T16:27:59.808Z,1
2018-09-25T16:33:02.559Z,1
2018-09-25T16:38:04.900Z,1
2018-09-25T16:43:07.186Z,1
2018-09-25T16:48:09.548Z,2
2018-09-25T16:53:12.011Z,1
2018-09-25T16:58:14.608Z,1
2018-09-25T17:03:16.867Z,1
2018-09-25T17:08:19.352Z,1
2018-09-25T17:13:21.885Z,1
2018-09-25T17:18:24.178Z,1
2018-09-25T17:23:26.614Z,1
2018-09-25T17:28:29.066Z,1
2018-09-25T17:33:31.533Z,1
2018-09-25T17:38:33.953Z,1
2018-09-25T17:43:36.788Z,1
2018-09-25T17:48:38.940Z,0
2018-09-25T17:53:41.570Z,1
2018-09-25T17:58:43.994Z,1
2018-09-25T18:03:46.235Z,1
2018-09-25T18:08:48.614Z,1
2018-09-25T18:13:52.865Z,1
2018-09-25T18:18:53.562Z,1
2018-09-25T18:23:55.962Z,2
2018-09-25T18:28:58.420Z,2
2018-09-25T18:34:00.877Z,2
2018-09-25T18:39:03.259Z,2
2018-09-25T18:44:05.712Z,2
2018-09-25T18:49:08.213Z,4
2018-09-25T18:54:11.201Z,11
2018-09-25T18:59:13.069Z,28
2018-09-25T19:04:15.554Z,30
2018-09-25T19:09:18.152Z,16
2018-09-25T19:14:21.043Z,11
2018-09-25T19:19:22.821Z,8
2018-09-25T19:24:25.307Z,11
2018-09-25T19:29:28.115Z,19
2018-09-25T19:34:30.202Z,9
2018-09-25T19:39:32.656Z,3
2018-09-25T19:49:37.568Z,5
2018-09-25T19:54:39.937Z,3
2018-09-25T19:59:42.448Z,2
2018-09-25T20:04:44.896Z,3
2018-09-25T20:09:47.310Z,4
2018-09-25T20:14:49.752Z,3
2018-09-25T20:19:52.370Z,3
2018-09-25T20:24:54.643Z,3
2018-09-25T20:29:57.094Z,3
2018-09-25T20:34:59.597Z,3
